עמוד ראשי
METAR-TAF:

METAR-TAF

שדות תעופה :

Freeport, איי בהאמה

קו רוחב: 26-33N, קו אורך: 078-42W, גובה: 2מטר

תצפית מזג אוויר נוכחית

הדו"ח נערך לפני 11דקות, בשעה 00:00 UTC
רוח 9קשר מכיוון דרום
טמפרטורת 25 צלסיוס
לחות 89%
לחץ 1015 hPa
ראות: 6400מטר
מעט עננים בגובה 600רגל
מעט עננים בגובה 1200רגל , קומולונימבוס.
מעונן בגובה 8000רגל
סופת רעמים, גשם, סופת רעמים,

METAR: MYGF 130000Z 19009KT 6400 TSRA FEW006 FEW012CB OVC080 25/23 A2997 CB SCT ALQDS TS E/SE

זמן: 20:11 (00:11 UTC)

תחזית

הדו"ח נערך לפני 6 שעות ו 16דקות, בשעה 17:55 UTC
תחזית בתוקף מ 12 ב 18 UTC עד 13 ב 18 UTC
רוח 8קשר מכיוון דרום/דרום-מזרח
ראות: 8000מטר
עננים פזורים בגובה 1200רגל , קומולונימבוס.
עננים בינוניים בגובה 1800רגל
מעונן בגובה 10000רגל
סופת רעמים, גשם
מ 13 ב 0000UTC
רוח 10קשר מכיוון דרום/דרום-מערב
ראות: 9000מטר
עננים פזורים בגובה 1500רגל , קומולונימבוס.
מעונן בגובה 12000רגל
גשם,

TAF: MYGF 121755Z 1218/1318 16008KT 8000 TSRA SCT012CB BKN018 OVC100 FM130000 20010KT 9000 RA SCT015CB OVC120

תצפיות ותחזיות מזג אוויר לגבי יותר מ- 4,000 שדות תעופה ברחבי העולם. דוחות METAR ו- TAF.

התחנות הזמינות מסומנות בנקודות צהובות ואדומות על גבי המפה.

העבר את העכבר לנקודה הצבעונית על מנת לראות את שם התחנה.

לאחר מכן, לחץ כדי לראות את תוכן ואת תחזיות מזג האוויר.

כדי לשנות את המפה: לחץ על הכפתורים הירוקים עם הפלוס השחור כדי להתקרב; על הכפתור הירוק עם המקף כדי להתרחק; או בחיצים הירוקים למפות סמוכות.


METAR-TAF: